sensor_id;sensor_type;location;lat;lon;timestamp;pressure;altitude;pressure_sealevel;temperature;humidity
38038;BME280;23843;51.320;12.340;2022-12-01T05:30:35;101477.81;;;0.48;100.00
38038;BME280;23843;51.320;12.340;2022-12-01T05:33:00;101482.13;;;0.39;100.00
38038;BME280;23843;51.320;12.340;2022-12-01T05:35:27;101469.09;;;0.39;100.00
38038;BME280;23843;51.320;12.340;2022-12-01T05:37:53;101476.06;;;0.43;100.00
38038;BME280;23843;51.320;12.340;2022-12-01T05:40:18;101475.13;;;0.34;100.00
38038;BME280;23843;51.320;12.340;2022-12-01T05:42:44;101476.88;;;0.33;100.00
38038;BME280;23843;51.320;12.340;2022-12-01T05:45:10;101478.66;;;0.37;100.00
38038;BME280;23843;51.320;12.340;2022-12-01T05:47:36;101484.69;;;0.36;100.00
38038;BME280;23843;51.320;12.340;2022-12-01T05:50:02;101485.59;;;0.38;100.00
38038;BME280;23843;51.320;12.340;2022-12-01T05:52:28;101480.38;;;0.38;100.00
38038;BME280;23843;51.320;12.340;2022-12-01T05:54:53;101472.56;;;0.40;100.00
38038;BME280;23843;51.320;12.340;2022-12-01T05:57:18;101478.72;;;0.50;100.00
38038;BME280;23843;51.320;12.340;2022-12-01T05:59:44;101480.47;;;0.52;100.00
38038;BME280;23843;51.320;12.340;2022-12-01T06:02:09;101482.22;;;0.52;100.00
38038;BME280;23843;51.320;12.340;2022-12-01T06:04:36;101477.88;;;0.57;100.00
38038;BME280;23843;51.320;12.340;2022-12-01T06:07:02;101478.78;;;0.59;100.00
38038;BME280;23843;51.320;12.340;2022-12-01T06:09:27;101489.19;;;0.59;100.00
38038;BME280;23843;51.320;12.340;2022-12-01T06:11:52;101482.22;;;0.61;100.00
38038;BME280;23843;51.320;12.340;2022-12-01T06:14:18;101483.94;;;0.53;100.00
38038;BME280;23843;51.320;12.340;2022-12-01T06:16:43;101491.75;;;0.50;100.00
38038;BME280;23843;51.320;12.340;2022-12-01T06:19:09;101496.94;;;0.48;100.00
38038;BME280;23843;51.320;12.340;2022-12-01T06:21:35;101492.59;;;0.46;100.00
38038;BME280;23843;51.320;12.340;2022-12-01T06:24:01;101491.78;;;0.54;100.00
38038;BME280;23843;51.320;12.340;2022-12-01T06:26:26;101487.44;;;0.61;100.00
38038;BME280;23843;51.320;12.340;2022-12-01T06:28:52;101497.91;;;0.62;100.00
38038;BME280;23843;51.320;12.340;2022-12-01T06:31:17;101497.91;;;0.66;100.00
38038;BME280;23843;51.320;12.340;2022-12-01T06:33:42;101499.66;;;0.68;100.00
38038;BME280;23843;51.320;12.340;2022-12-01T06:36:09;101501.38;;;0.64;100.00
38038;BME280;23843;51.320;12.340;2022-12-01T06:38:36;101501.38;;;0.61;100.00
38038;BME280;23843;51.320;12.340;2022-12-01T06:41:02;101506.56;;;0.58;100.00
38038;BME280;23843;51.320;12.340;2022-12-01T06:43:28;101502.25;;;0.62;100.00
38038;BME280;23843;51.320;12.340;2022-12-01T06:45:54;101500.47;;;0.58;100.00
38038;BME280;23843;51.320;12.340;2022-12-01T06:48:19;101496.16;;;0.60;100.00
38038;BME280;23843;51.320;12.340;2022-12-01T06:50:44;101506.63;;;0.66;100.00
38038;BME280;23843;51.320;12.340;2022-12-01T06:53:10;101497.94;;;0.70;100.00
38038;BME280;23843;51.320;12.340;2022-12-01T06:55:37;101497.97;;;0.73;100.00
38038;BME280;23843;51.320;12.340;2022-12-01T06:58:03;101501.44;;;0.74;100.00
38038;BME280;23843;51.320;12.340;2022-12-01T07:00:29;101497.09;;;0.80;100.00
38038;BME280;23843;51.320;12.340;2022-12-01T07:02:54;101493.63;;;0.77;100.00
38038;BME280;23843;51.320;12.340;2022-12-01T07:05:20;101497.97;;;0.76;100.00
38038;BME280;23843;51.320;12.340;2022-12-01T07:07:45;101501.44;;;0.77;100.00
38038;BME280;23843;51.320;12.340;2022-12-01T07:10:11;101504.97;;;0.87;100.00
38038;BME280;23843;51.320;12.340;2022-12-01T07:12:39;101511.09;;;0.93;100.00
38038;BME280;23843;51.320;12.340;2022-12-01T07:15:06;101518.94;;;0.98;100.00
38038;BME280;23843;51.320;12.340;2022-12-01T07:17:32;101518.91;;;0.96;100.00
38038;BME280;23843;51.320;12.340;2022-12-01T07:19:58;101519.78;;;0.94;100.00
38038;BME280;23843;51.320;12.340;2022-12-01T07:22:23;101524.09;;;0.85;100.00
38038;BME280;23843;51.320;12.340;2022-12-01T07:24:48;101527.59;;;0.94;100.00
38038;BME280;23843;51.320;12.340;2022-12-01T07:27:14;101523.25;;;0.97;100.00
38038;BME280;23843;51.320;12.340;2022-12-01T07:29:41;101529.34;;;0.92;100.00
38038;BME280;23843;51.320;12.340;2022-12-01T07:32:06;101529.31;;;0.87;100.00
38038;BME280;23843;51.320;12.340;2022-12-01T07:34:31;101536.28;;;0.87;100.00
38038;BME280;23843;51.320;12.340;2022-12-01T07:36:57;101532.78;;;0.88;100.00
38038;BME280;23843;51.320;12.340;2022-12-01T07:39:22;101546.72;;;0.90;100.00
38038;BME280;23843;51.320;12.340;2022-12-01T07:41:48;101536.28;;;0.90;100.00
38038;BME280;23843;51.320;12.340;2022-12-01T07:44:14;101539.78;;;0.95;100.00
38038;BME280;23843;51.320;12.340;2022-12-01T07:46:41;101535.38;;;0.88;100.00
38038;BME280;23843;51.320;12.340;2022-12-01T07:49:07;101543.22;;;0.89;100.00
38038;BME280;23843;51.320;12.340;2022-12-01T07:51:33;101537.16;;;0.95;100.00
38038;BME280;23843;51.320;12.340;2022-12-01T07:54:04;101542.41;;;0.99;100.00
38038;BME280;23843;51.320;12.340;2022-12-01T07:56:29;101538.94;;;0.96;100.00
38038;BME280;23843;51.320;12.340;2022-12-01T07:58:55;101539.81;;;0.98;100.00
38038;BME280;23843;51.320;12.340;2022-12-01T08:01:22;101543.28;;;1.00;100.00
38038;BME280;23843;51.320;12.340;2022-12-01T08:03:51;101545.91;;;0.98;100.00
38038;BME280;23843;51.320;12.340;2022-12-01T08:06:18;101551.09;;;0.95;100.00
38038;BME280;23843;51.320;12.340;2022-12-01T08:08:43;101543.25;;;0.91;100.00
38038;BME280;23843;51.320;12.340;2022-12-01T08:11:11;101543.28;;;0.98;100.00
38038;BME280;23843;51.320;12.340;2022-12-01T08:13:37;101549.41;;;1.10;100.00
38038;BME280;23843;51.320;12.340;2022-12-01T08:16:03;101545.97;;;1.15;100.00
38038;BME280;23843;51.320;12.340;2022-12-01T08:18:29;101530.25;;;1.06;100.00
38038;BME280;23843;51.320;12.340;2022-12-01T08:20:59;101533.75;;;1.08;100.00
38038;BME280;23843;51.320;12.340;2022-12-01T08:23:24;101535.47;;;1.01;100.00
38038;BME280;23843;51.320;12.340;2022-12-01T08:25:50;101538.09;;;1.03;100.00
38038;BME280;23843;51.320;12.340;2022-12-01T08:28:15;101545.03;;;1.04;100.00
38038;BME280;23843;51.320;12.340;2022-12-01T08:30:41;101542.41;;;0.99;100.00
38038;BME280;23843;51.320;12.340;2022-12-01T08:33:07;101545.03;;;1.01;100.00
38038;BME280;23843;51.320;12.340;2022-12-01T08:35:34;101546.78;;;1.00;100.00
38038;BME280;23843;51.320;12.340;2022-12-01T08:38:00;101543.28;;;1.00;100.00
38038;BME280;23843;51.320;12.340;2022-12-01T08:40:26;101558.06;;;0.93;100.00
38038;BME280;23843;51.320;12.340;2022-12-01T08:42:51;101550.22;;;0.95;100.00
38038;BME280;23843;51.320;12.340;2022-12-01T08:45:17;101559.81;;;1.02;100.00
38038;BME280;23843;51.320;12.340;2022-12-01T08:47:42;101555.47;;;1.01;100.00
38038;BME280;23843;51.320;12.340;2022-12-01T08:50:08;101553.69;;;0.94;100.00
38038;BME280;23843;51.320;12.340;2022-12-01T08:52:34;101553.72;;;1.00;100.00
38038;BME280;23843;51.320;12.340;2022-12-01T08:55:01;101560.69;;;0.98;100.00
38038;BME280;23843;51.320;12.340;2022-12-01T08:57:28;101559.84;;;1.08;100.00
38038;BME280;23843;51.320;12.340;2022-12-01T08:59:53;101548.56;;;1.18;100.00
38038;BME280;23843;51.320;12.340;2022-12-01T09:02:19;101549.41;;;1.10;100.00
38038;BME280;23843;51.320;12.340;2022-12-01T09:04:44;101564.16;;;0.98;100.00
38038;BME280;23843;51.320;12.340;2022-12-01T09:07:10;101558.91;;;0.94;100.00
38038;BME280;23843;51.320;12.340;2022-12-01T09:09:36;101568.53;;;1.01;100.00
38038;BME280;23843;51.320;12.340;2022-12-01T09:12:03;101568.50;;;1.02;100.00
38038;BME280;23843;51.320;12.340;2022-12-01T09:14:28;101562.47;;;1.08;100.00
38038;BME280;23843;51.320;12.340;2022-12-01T09:16:54;101563.38;;;1.18;100.00
38038;BME280;23843;51.320;12.340;2022-12-01T09:19:20;101573.81;;;1.24;100.00
38038;BME280;23843;51.320;12.340;2022-12-01T09:21:45;101567.75;;;1.26;100.00
38038;BME280;23843;51.320;12.340;2022-12-01T09:24:12;101569.47;;;1.21;100.00
38038;BME280;23843;51.320;12.340;2022-12-01T09:26:38;101569.47;;;1.21;100.00
38038;BME280;23843;51.320;12.340;2022-12-01T09:29:06;101563.41;;;1.25;100.00
38038;BME280;23843;51.320;12.340;2022-12-01T09:31:32;101560.75;;;1.18;100.00
38038;BME280;23843;51.320;12.340;2022-12-01T09:34:01;101561.59;;;1.09;100.00
38038;BME280;23843;51.320;12.340;2022-12-01T09:36:26;101556.34;;;1.04;100.00
38038;BME280;23843;51.320;12.340;2022-12-01T09:38:52;101556.38;;;1.08;100.00
38038;BME280;23843;51.320;12.340;2022-12-01T09:41:20;101554.63;;;1.08;100.00
38038;BME280;23843;51.320;12.340;2022-12-01T09:43:50;101551.13;;;1.04;100.00
38038;BME280;23843;51.320;12.340;2022-12-01T09:46:24;101558.13;;;1.12;100.00
38038;BME280;23843;51.320;12.340;2022-12-01T09:48:51;101553.81;;;1.23;100.00
38038;BME280;23843;51.320;12.340;2022-12-01T09:51:19;101553.84;;;1.27;100.00
38038;BME280;23843;51.320;12.340;2022-12-01T09:53:47;101556.47;;;1.32;100.00
38038;BME280;23843;51.320;12.340;2022-12-01T09:56:19;101546.84;;;1.23;100.00
38038;BME280;23843;51.320;12.340;2022-12-01T09:58:46;101555.56;;;1.22;100.00
38038;BME280;23843;51.320;12.340;2022-12-01T10:01:15;101554.69;;;1.25;100.00
38038;BME280;23843;51.320;12.340;2022-12-01T10:03:45;101553.78;;;1.17;100.00
38038;BME280;23843;51.320;12.340;2022-12-01T10:06:15;101549.44;;;1.16;100.00
38038;BME280;23843;51.320;12.340;2022-12-01T10:08:48;101552.91;;;1.19;100.00
38038;BME280;23843;51.320;12.340;2022-12-01T10:11:25;101546.78;;;1.10;100.00
38038;BME280;23843;51.320;12.340;2022-12-01T10:13:52;101547.63;;;1.02;100.00
38038;BME280;23843;51.320;12.340;2022-12-01T10:16:22;101543.28;;;0.98;100.00
38038;BME280;23843;51.320;12.340;2022-12-01T10:18:57;101551.97;;;0.93;100.00
38038;BME280;23843;51.320;12.340;2022-12-01T10:21:37;101539.81;;;1.04;100.00
38038;BME280;23843;51.320;12.340;2022-12-01T10:24:23;101550.25;;;1.07;100.00
38038;BME280;23843;51.320;12.340;2022-12-01T10:26:58;101536.34;;;1.10;100.00
38038;BME280;23843;51.320;12.340;2022-12-01T10:29:30;101540.75;;;1.18;100.00
38038;BME280;23843;51.320;12.340;2022-12-01T10:32:03;101542.50;;;1.22;100.00
38038;BME280;23843;51.320;12.340;2022-12-01T10:34:37;101533.84;;;1.34;100.00
38038;BME280;23843;51.320;12.340;2022-12-01T10:37:04;101528.63;;;1.43;100.00
38038;BME280;23843;51.320;12.340;2022-12-01T10:39:35;101532.13;;;1.50;100.00
38038;BME280;23843;51.320;12.340;2022-12-01T10:42:04;101534.72;;;1.44;100.00
38038;BME280;23843;51.320;12.340;2022-12-01T10:44:30;101530.38;;;1.43;100.00
38038;BME280;23843;51.320;12.340;2022-12-01T10:46:56;101523.41;;;1.40;100.00
38038;BME280;23843;51.320;12.340;2022-12-01T10:49:35;101526.84;;;1.28;100.00
38038;BME280;23843;51.320;12.340;2022-12-01T10:52:01;101522.50;;;1.24;100.00
38038;BME280;23843;51.320;12.340;2022-12-01T10:54:32;101520.78;;;1.30;100.00
38038;BME280;23843;51.320;12.340;2022-12-01T10:56:58;101522.50;;;1.34;100.00
38038;BME280;23843;51.320;12.340;2022-12-01T10:59:30;101526.00;;;1.30;100.00
38038;BME280;23843;51.320;12.340;2022-12-01T11:01:57;101520.75;;;1.28;100.00
38038;BME280;23843;51.320;12.340;2022-12-01T11:04:31;101519.94;;;1.37;100.00
38038;BME280;23843;51.320;12.340;2022-12-01T11:06:59;101517.31;;;1.46;100.00
38038;BME280;23843;51.320;12.340;2022-12-01T11:09:27;101516.41;;;1.36;100.00
38038;BME280;23843;51.320;12.340;2022-12-01T11:11:55;101513.84;;;1.38;100.00
38038;BME280;23843;51.320;12.340;2022-12-01T11:14:24;101511.22;;;1.42;100.00
38038;BME280;23843;51.320;12.340;2022-12-01T11:16:52;101517.31;;;1.43;100.00
38038;BME280;23843;51.320;12.340;2022-12-01T11:19:20;101515.59;;;1.45;100.00
38038;BME280;23843;51.320;12.340;2022-12-01T11:21:51;101513.81;;;1.44;100.00
38038;BME280;23843;51.320;12.340;2022-12-01T11:24:40;101512.09;;;1.46;100.00
38038;BME280;23843;51.320;12.340;2022-12-01T11:27:14;101505.19;;;1.59;100.00
38038;BME280;23843;51.320;12.340;2022-12-01T11:29:40;101498.19;;;1.62;100.00
38038;BME280;23843;51.320;12.340;2022-12-01T11:32:15;101506.06;;;1.64;100.00
38038;BME280;23843;51.320;12.340;2022-12-01T11:34:48;101501.66;;;1.46;100.00
38038;BME280;23843;51.320;12.340;2022-12-01T11:37:16;101499.00;;;1.34;100.00
38038;BME280;23843;51.320;12.340;2022-12-01T11:39:45;101498.13;;;1.28;100.00
38038;BME280;23843;51.320;12.340;2022-12-01T11:42:19;101491.19;;;1.27;100.00
38038;BME280;23843;51.320;12.340;2022-12-01T11:44:48;101492.94;;;1.35;100.00
38038;BME280;23843;51.320;12.340;2022-12-01T11:47:18;101492.94;;;1.44;100.00
38038;BME280;23843;51.320;12.340;2022-12-01T11:49:46;101492.06;;;1.33;100.00
38038;BME280;23843;51.320;12.340;2022-12-01T11:52:19;101489.47;;;1.37;100.00
38038;BME280;23843;51.320;12.340;2022-12-01T11:54:59;101486.88;;;1.42;100.00
38038;BME280;23843;51.320;12.340;2022-12-01T11:57:25;101493.81;;;1.50;100.00
38038;BME280;23843;51.320;12.340;2022-12-01T11:59:51;101483.38;;;1.47;100.00
38038;BME280;23843;51.320;12.340;2022-12-01T12:02:24;101489.47;;;1.51;100.00
38038;BME280;23843;51.320;12.340;2022-12-01T12:05:05;101487.72;;;1.44;100.00
38038;BME280;23843;51.320;12.340;2022-12-01T12:07:39;101489.47;;;1.42;100.00
38038;BME280;23843;51.320;12.340;2022-12-01T12:10:22;101491.19;;;1.31;100.00
38038;BME280;23843;51.320;12.340;2022-12-01T12:13:01;101498.16;;;1.27;100.00
38038;BME280;23843;51.320;12.340;2022-12-01T12:15:36;101498.09;;;1.19;100.00
38038;BME280;23843;51.320;12.340;2022-12-01T12:18:30;101493.75;;;1.21;100.00
38038;BME280;23843;51.320;12.340;2022-12-01T12:21:06;101478.09;;;1.21;100.00
38038;BME280;23843;51.320;12.340;2022-12-01T12:26:28;101485.94;;;1.15;100.00
38038;BME280;23843;51.320;12.340;2022-12-01T12:29:06;101481.56;;;1.19;100.00
38038;BME280;23843;51.320;12.340;2022-12-01T12:31:50;101480.72;;;1.15;100.00
38038;BME280;23843;51.320;12.340;2022-12-01T12:34:33;101480.72;;;1.18;100.00
38038;BME280;23843;51.320;12.340;2022-12-01T12:37:08;101483.31;;;1.14;100.00
38038;BME280;23843;51.320;12.340;2022-12-01T12:39:44;101484.19;;;1.08;100.00
38038;BME280;23843;51.320;12.340;2022-12-01T12:42:21;101482.44;;;1.10;100.00
38038;BME280;23843;51.320;12.340;2022-12-01T12:44:56;101486.81;;;1.13;100.00
38038;BME280;23843;51.320;12.340;2022-12-01T12:47:36;101483.31;;;1.15;100.00
38038;BME280;23843;51.320;12.340;2022-12-01T12:50:14;101486.81;;;1.17;100.00
38038;BME280;23843;51.320;12.340;2022-12-01T12:52:44;101485.06;;;1.18;100.00
38038;BME280;23843;51.320;12.340;2022-12-01T12:55:14;101482.47;;;1.32;100.00
38038;BME280;23843;51.320;12.340;2022-12-01T12:57:46;101480.78;;;1.40;100.00
38038;BME280;23843;51.320;12.340;2022-12-01T13:00:16;101475.53;;;1.37;100.00
38038;BME280;23843;51.320;12.340;2022-12-01T13:02:43;101473.81;;;1.42;100.00
38038;BME280;23843;51.320;12.340;2022-12-01T13:05:15;101468.59;;;1.45;100.00
38038;BME280;23843;51.320;12.340;2022-12-01T13:07:46;101475.53;;;1.40;100.00
38038;BME280;23843;51.320;12.340;2022-12-01T13:10:25;101475.53;;;1.46;100.00
38038;BME280;23843;51.320;12.340;2022-12-01T13:12:58;101472.94;;;1.46;100.00
38038;BME280;23843;51.320;12.340;2022-12-01T13:15:25;101471.22;;;1.54;100.00
38038;BME280;23843;51.320;12.340;2022-12-01T13:17:52;101466.88;;;1.59;100.00
38038;BME280;23843;51.320;12.340;2022-12-01T13:20:22;101463.38;;;1.65;100.00
38038;BME280;23843;51.320;12.340;2022-12-01T13:22:51;101472.09;;;1.56;100.00
38038;BME280;23843;51.320;12.340;2022-12-01T13:25:23;101469.47;;;1.52;100.00
38038;BME280;23843;51.320;12.340;2022-12-01T13:27:51;101477.28;;;1.50;100.00
38038;BME280;23843;51.320;12.340;2022-12-01T13:30:20;101476.41;;;1.39;100.00
38038;BME280;23843;51.320;12.340;2022-12-01T13:32:47;101475.53;;;1.31;100.00
38038;BME280;23843;51.320;12.340;2022-12-01T13:35:21;101476.41;;;1.33;100.00
38038;BME280;23843;51.320;12.340;2022-12-01T13:37:49;101473.78;;;1.40;100.00
38038;BME280;23843;51.320;12.340;2022-12-01T13:40:19;101474.69;;;1.47;100.00
38038;BME280;23843;51.320;12.340;2022-12-01T13:42:54;101475.53;;;1.50;100.00
38038;BME280;23843;51.320;12.340;2022-12-01T13:45:21;101472.94;;;1.47;100.00
38038;BME280;23843;51.320;12.340;2022-12-01T13:47:50;101470.34;;;1.49;100.00
38038;BME280;23843;51.320;12.340;2022-12-01T13:50:51;101479.06;;;1.54;100.00
38038;BME280;23843;51.320;12.340;2022-12-01T13:53:24;101476.44;;;1.57;100.00
38038;BME280;23843;51.320;12.340;2022-12-01T13:55:56;101475.56;;;1.52;100.00
38038;BME280;23843;51.320;12.340;2022-12-01T13:58:40;101467.72;;;1.52;100.00
38038;BME280;23843;51.320;12.340;2022-12-01T14:01:43;101465.09;;;1.58;100.00
38038;BME280;23843;51.320;12.340;2022-12-01T14:04:29;101458.13;;;1.63;100.00
38038;BME280;23843;51.320;12.340;2022-12-01T14:07:20;101464.25;;;1.62;100.00
38038;BME280;23843;51.320;12.340;2022-12-01T14:09:48;101459.91;;;1.61;100.00
38038;BME280;23843;51.320;12.340;2022-12-01T14:12:16;101461.66;;;1.64;100.00
38038;BME280;23843;51.320;12.340;2022-12-01T14:14:47;101458.16;;;1.62;100.00
38038;BME280;23843;51.320;12.340;2022-12-01T14:17:24;101460.75;;;1.60;100.00
38038;BME280;23843;51.320;12.340;2022-12-01T14:19:50;101458.16;;;1.66;100.00
38038;BME280;23843;51.320;12.340;2022-12-01T14:22:31;101472.09;;;1.59;100.00
38038;BME280;23843;51.320;12.340;2022-12-01T14:24:57;101466.84;;;1.53;100.00
38038;BME280;23843;51.320;12.340;2022-12-01T14:27:33;101463.38;;;1.53;100.00
38038;BME280;23843;51.320;12.340;2022-12-01T14:33:44;101451.19;;;1.62;100.00
38038;BME280;23843;51.320;12.340;2022-12-01T14:36:20;101452.94;;;1.71;100.00
38038;BME280;23843;51.320;12.340;2022-12-01T14:38:47;101458.16;;;1.66;100.00
38038;BME280;23843;51.320;12.340;2022-12-01T14:41:20;101450.31;;;1.59;100.00
38038;BME280;23843;51.320;12.340;2022-12-01T14:43:48;101451.19;;;1.65;100.00
38038;BME280;23843;51.320;12.340;2022-12-01T14:46:19;101449.44;;;1.67;100.00
38038;BME280;23843;51.320;12.340;2022-12-01T14:48:48;101451.19;;;1.64;100.00
38038;BME280;23843;51.320;12.340;2022-12-01T14:51:21;101456.41;;;1.50;100.00
38038;BME280;23843;51.320;12.340;2022-12-01T14:53:51;101452.91;;;1.43;100.00
38038;BME280;23843;51.320;12.340;2022-12-01T14:56:17;101444.19;;;1.46;100.00
38038;BME280;23843;51.320;12.340;2022-12-01T14:58:51;101454.66;;;1.43;100.00
38038;BME280;23843;51.320;12.340;2022-12-01T15:01:18;101444.22;;;1.40;100.00
38038;BME280;23843;51.320;12.340;2022-12-01T15:03:48;101452.03;;;1.38;100.00
38038;BME280;23843;51.320;12.340;2022-12-01T15:06:16;101445.94;;;1.44;100.00
38038;BME280;23843;51.320;12.340;2022-12-01T15:08:42;101444.22;;;1.37;100.00
38038;BME280;23843;51.320;12.340;2022-12-01T15:11:19;101441.56;;;1.34;100.00
38038;BME280;23843;51.320;12.340;2022-12-01T15:13:47;101447.66;;;1.26;100.00
38038;BME280;23843;51.320;12.340;2022-12-01T15:16:15;101447.66;;;1.26;100.00
38038;BME280;23843;51.320;12.340;2022-12-01T15:18:41;101446.81;;;1.32;100.00
38038;BME280;23843;51.320;12.340;2022-12-01T15:21:12;101445.09;;;1.42;100.00
38038;BME280;23843;51.320;12.340;2022-12-01T15:23:51;101444.22;;;1.49;100.00
38038;BME280;23843;51.320;12.340;2022-12-01T15:26:18;101453.78;;;1.41;100.00
38038;BME280;23843;51.320;12.340;2022-12-01T15:28:43;101448.53;;;1.36;100.00
38038;BME280;23843;51.320;12.340;2022-12-01T15:31:11;101450.31;;;1.37;100.00
38038;BME280;23843;51.320;12.340;2022-12-01T15:33:42;101443.34;;;1.35;100.00
38038;BME280;23843;51.320;12.340;2022-12-01T15:36:09;101445.06;;;1.23;100.00
38038;BME280;23843;51.320;12.340;2022-12-01T15:38:36;101448.53;;;1.21;100.00
38038;BME280;23843;51.320;12.340;2022-12-01T15:41:03;101452.88;;;1.23;100.00
38038;BME280;23843;51.320;12.340;2022-12-01T15:43:32;101448.53;;;1.28;100.00
38038;BME280;23843;51.320;12.340;2022-12-01T15:46:00;101452.03;;;1.27;100.00
38038;BME280;23843;51.320;12.340;2022-12-01T15:48:29;101458.13;;;1.28;100.00
38038;BME280;23843;51.320;12.340;2022-12-01T15:51:03;101450.28;;;1.33;100.00
38038;BME280;23843;51.320;12.340;2022-12-01T15:53:33;101459.00;;;1.35;100.00
38038;BME280;23843;51.320;12.340;2022-12-01T15:56:01;101454.63;;;1.34;100.00
38038;BME280;23843;51.320;12.340;2022-12-01T15:58:29;101461.59;;;1.30;100.00
38038;BME280;23843;51.320;12.340;2022-12-01T16:00:58;101464.19;;;1.24;100.00
38038;BME280;23843;51.320;12.340;2022-12-01T16:03:24;101467.66;;;1.17;100.00
38038;BME280;23843;51.320;12.340;2022-12-01T16:05:50;101465.06;;;1.20;100.00
38038;BME280;23843;51.320;12.340;2022-12-01T16:08:17;101461.59;;;1.28;100.00
38038;BME280;23843;51.320;12.340;2022-12-01T16:10:45;101466.84;;;1.35;100.00
38038;BME280;23843;51.320;12.340;2022-12-01T16:13:38;101466.81;;;1.44;100.00
38038;BME280;23843;51.320;12.340;2022-12-01T16:16:37;101465.09;;;1.46;100.00
38038;BME280;23843;51.320;12.340;2022-12-01T16:19:21;101465.97;;;1.45;100.00
38038;BME280;23843;51.320;12.340;2022-12-01T16:21:48;101467.72;;;1.44;100.00
38038;BME280;23843;51.320;12.340;2022-12-01T16:24:16;101465.09;;;1.43;100.00
38038;BME280;23843;51.320;12.340;2022-12-01T16:26:46;101462.47;;;1.35;100.00
38038;BME280;23843;51.320;12.340;2022-12-01T16:29:17;101469.44;;;1.36;100.00
38038;BME280;23843;51.320;12.340;2022-12-01T16:31:42;101469.44;;;1.38;100.00
38038;BME280;23843;51.320;12.340;2022-12-01T16:34:13;101468.56;;;1.39;100.00
38038;BME280;23843;51.320;12.340;2022-12-01T16:36:39;101470.28;;;1.34;100.00
38038;BME280;23843;51.320;12.340;2022-12-01T16:39:05;101471.19;;;1.37;100.00
38038;BME280;23843;51.320;12.340;2022-12-01T16:41:31;101464.25;;;1.39;100.00
38038;BME280;23843;51.320;12.340;2022-12-01T16:43:56;101469.47;;;1.42;100.00
38038;BME280;23843;51.320;12.340;2022-12-01T16:46:23;101459.88;;;1.43;100.00
38038;BME280;23843;51.320;12.340;2022-12-01T16:48:49;101475.53;;;1.46;100.00
38038;BME280;23843;51.320;12.340;2022-12-01T16:51:14;101469.47;;;1.47;100.00
38038;BME280;23843;51.320;12.340;2022-12-01T16:53:39;101468.59;;;1.53;100.00
38038;BME280;23843;51.320;12.340;2022-12-01T16:56:05;101475.56;;;1.55;100.00
38038;BME280;23843;51.320;12.340;2022-12-01T16:58:31;101475.56;;;1.52;100.00
38038;BME280;23843;51.320;12.340;2022-12-01T17:00:56;101475.56;;;1.49;100.00
38038;BME280;23843;51.320;12.340;2022-12-01T17:03:26;101472.94;;;1.55;100.00
38038;BME280;23843;51.320;12.340;2022-12-01T17:05:52;101477.31;;;1.55;100.00
38038;BME280;23843;51.320;12.340;2022-12-01T17:08:17;101479.91;;;1.59;100.00
38038;BME280;23843;51.320;12.340;2022-12-01T17:10:45;101479.94;;;1.56;100.00
38038;BME280;23843;51.320;12.340;2022-12-01T17:13:11;101483.38;;;1.50;100.00
38038;BME280;23843;51.320;12.340;2022-12-01T17:15:39;101483.38;;;1.38;100.00
38038;BME280;23843;51.320;12.340;2022-12-01T17:18:05;101482.50;;;1.38;100.00
38038;BME280;23843;51.320;12.340;2022-12-01T17:20:31;101480.78;;;1.40;100.00
38038;BME280;23843;51.320;12.340;2022-12-01T17:22:57;101480.75;;;1.32;100.00
38038;BME280;23843;51.320;12.340;2022-12-01T17:25:22;101483.38;;;1.38;100.00
38038;BME280;23843;51.320;12.340;2022-12-01T17:27:48;101484.22;;;1.33;100.00
38038;BME280;23843;51.320;12.340;2022-12-01T17:30:13;101479.00;;;1.25;100.00
38038;BME280;23843;51.320;12.340;2022-12-01T17:32:39;101482.47;;;1.28;100.00
38038;BME280;23843;51.320;12.340;2022-12-01T17:35:05;101484.22;;;1.36;100.00
38038;BME280;23843;51.320;12.340;2022-12-01T17:37:32;101481.63;;;1.37;100.00
38038;BME280;23843;51.320;12.340;2022-12-01T17:39:57;101480.78;;;1.40;100.00
38038;BME280;23843;51.320;12.340;2022-12-01T17:42:23;101484.25;;;1.42;100.00
38038;BME280;23843;51.320;12.340;2022-12-01T17:44:48;101475.56;;;1.44;100.00
38038;BME280;23843;51.320;12.340;2022-12-01T17:47:14;101479.03;;;1.51;100.00
38038;BME280;23843;51.320;12.340;2022-12-01T17:49:39;101480.75;;;1.46;100.00
38038;BME280;23843;51.320;12.340;2022-12-01T17:52:05;101475.56;;;1.49;100.00
38038;BME280;23843;51.320;12.340;2022-12-01T17:54:32;101483.38;;;1.55;100.00
38038;BME280;23843;51.320;12.340;2022-12-01T17:56:57;101481.66;;;1.59;100.00
38038;BME280;23843;51.320;12.340;2022-12-01T17:59:23;101486.00;;;1.58;100.00
38038;BME280;23843;51.320;12.340;2022-12-01T18:01:48;101483.41;;;1.60;100.00
38038;BME280;23843;51.320;12.340;2022-12-01T18:04:14;101479.03;;;1.57;100.00
38038;BME280;23843;51.320;12.340;2022-12-01T18:06:39;101479.91;;;1.58;100.00
38038;BME280;23843;51.320;12.340;2022-12-01T18:09:05;101488.63;;;1.52;100.00
38038;BME280;23843;51.320;12.340;2022-12-01T18:11:32;101486.88;;;1.45;100.00
38038;BME280;23843;51.320;12.340;2022-12-01T18:13:59;101492.97;;;1.47;100.00
38038;BME280;23843;51.320;12.340;2022-12-01T18:16:26;101486.88;;;1.42;100.00
38038;BME280;23843;51.320;12.340;2022-12-01T18:18:52;101488.59;;;1.35;100.00
38038;BME280;23843;51.320;12.340;2022-12-01T18:21:19;101495.53;;;1.36;100.00
38038;BME280;23843;51.320;12.340;2022-12-01T18:23:47;101488.56;;;1.27;100.00
38038;BME280;23843;51.320;12.340;2022-12-01T18:26:12;101490.28;;;1.21;100.00